Time,TemperatureF,DewpointF,PressureIn,WindDirection,WindDirectionDegrees,WindSpeedMPH,WindSpeedGustMPH,Humidity,HourlyPrecipIn,Conditions,Clouds,dailyrainin,SolarRadiationWatts/m^2,SoftwareType,DateUTC
2013-05-04 00:01:00,49.0,33.0,-100.00,SSE,168,2.0,3.0,53,-99.99,,,0.00,0.000000,,2013-05-04 07:01:00,
2013-05-04 00:11:00,49.0,33.0,-100.00,SSE,168,2.0,3.0,53,-99.99,,,0.00,0.000000,,2013-05-04 07:11:00,
2013-05-04 00:41:00,45.0,35.0,-100.00,South,170,1.0,2.0,67,-99.99,,,0.00,0.000000,,2013-05-04 07:41:00,
2013-05-04 00:52:00,45.0,35.0,-100.00,South,170,1.0,2.0,67,-99.99,,,0.00,0.000000,,2013-05-04 07:52:00,
2013-05-04 01:01:00,45.0,35.0,-100.00,South,170,1.0,2.0,67,-99.99,,,0.00,0.000000,,2013-05-04 08:01:00,
2013-05-04 01:11:00,45.0,35.0,-100.00,South,170,1.0,2.0,67,-99.99,,,0.00,0.000000,,2013-05-04 08:11:00,
2013-05-04 01:41:00,43.0,34.0,-100.00,SSE,156,1.0,3.0,68,-99.99,,,0.00,0.000000,,2013-05-04 08:41:00,
2013-05-04 01:52:00,43.0,34.0,-100.00,SSE,156,1.0,3.0,68,-99.99,,,0.00,0.000000,,2013-05-04 08:52:00,
2013-05-04 02:02:00,43.0,34.0,-100.00,SSE,156,1.0,3.0,68,-99.99,,,0.00,0.000000,,2013-05-04 09:02:00,
2013-05-04 02:11:00,43.0,34.0,-100.00,SSE,156,1.0,3.0,68,-99.99,,,0.00,0.000000,,2013-05-04 09:11:00,
2013-05-04 02:42:00,42.0,34.0,-100.00,SSE,165,1.0,3.0,73,-99.99,,,0.00,0.000000,,2013-05-04 09:42:00,
2013-05-04 02:53:00,42.0,34.0,-100.00,SSE,165,1.0,3.0,73,-99.99,,,0.00,0.000000,,2013-05-04 09:53:00,
2013-05-04 03:02:00,42.0,34.0,-100.00,SSE,165,1.0,3.0,73,-99.99,,,0.00,0.000000,,2013-05-04 10:02:00,
2013-05-04 03:12:00,42.0,34.0,-100.00,SSE,165,1.0,3.0,73,-99.99,,,0.00,0.000000,,2013-05-04 10:12:00,
2013-05-04 03:42:00,40.0,33.0,-100.00,SSE,163,1.0,2.0,75,-99.99,,,0.00,0.000000,,2013-05-04 10:42:00,
2013-05-04 03:53:00,40.0,33.0,-100.00,SSE,163,1.0,2.0,75,-99.99,,,0.00,0.000000,,2013-05-04 10:53:00,
2013-05-04 04:02:00,40.0,33.0,-100.00,SSE,163,1.0,2.0,75,-99.99,,,0.00,0.000000,,2013-05-04 11:02:00,
2013-05-04 04:11:00,40.0,33.0,-100.00,SSE,163,1.0,2.0,75,-99.99,,,0.00,0.000000,,2013-05-04 11:11:00,
2013-05-04 04:42:00,39.0,32.0,-100.00,South,180,1.0,2.0,76,-99.99,,,0.00,0.000000,,2013-05-04 11:42:00,
2013-05-04 05:00:00,39.0,32.0,-100.00,South,180,1.0,2.0,76,-99.99,,,0.00,0.000000,,2013-05-04 12:00:00,
2013-05-04 05:12:00,39.0,32.0,-100.00,South,180,1.0,2.0,76,-99.99,,,0.00,0.000000,,2013-05-04 12:12:00,
2013-05-04 06:41:00,37.0,32.0,-100.00,South,185,1.0,2.0,83,-99.99,,,0.00,11.390000,,2013-05-04 13:41:00,
2013-05-04 06:52:00,37.0,32.0,-100.00,South,185,1.0,2.0,83,-99.99,,,0.00,11.390000,,2013-05-04 13:52:00,
2013-05-04 07:02:00,37.0,32.0,-100.00,South,185,1.0,2.0,83,-99.99,,,0.00,11.390000,,2013-05-04 14:02:00,
2013-05-04 07:11:00,37.0,32.0,-100.00,South,185,1.0,2.0,83,-99.99,,,0.00,11.390000,,2013-05-04 14:11:00,
2013-05-04 07:41:00,45.0,34.0,-100.00,SE,140,1.0,2.0,66,-99.99,,,0.00,177.000000,,2013-05-04 14:41:00,
2013-05-04 07:52:00,45.0,34.0,-100.00,SE,140,1.0,2.0,66,-99.99,,,0.00,177.000000,,2013-05-04 14:52:00,
2013-05-04 08:01:00,45.0,34.0,-100.00,SE,140,1.0,2.0,66,-99.99,,,0.00,177.000000,,2013-05-04 15:01:00,
2013-05-04 08:11:00,45.0,34.0,-100.00,SE,140,1.0,2.0,66,-99.99,,,0.00,177.000000,,2013-05-04 15:11:00,
2013-05-04 08:43:00,54.0,33.0,-100.00,NNW,332,4.0,10.0,43,-99.99,,,0.00,215.360001,,2013-05-04 15:43:00,
2013-05-04 08:53:00,54.0,33.0,-100.00,NNW,332,4.0,10.0,43,-99.99,,,0.00,215.360001,,2013-05-04 15:53:00,
2013-05-04 09:03:00,54.0,33.0,-100.00,NNW,332,4.0,10.0,43,-99.99,,,0.00,215.360001,,2013-05-04 16:03:00,
2013-05-04 09:12:00,54.0,33.0,-100.00,NNW,332,4.0,10.0,43,-99.99,,,0.00,215.360001,,2013-05-04 16:12:00,
2013-05-04 09:42:00,56.0,33.0,-100.00,NW,323,4.0,11.0,41,-99.99,,,0.00,556.809998,,2013-05-04 16:42:00,
2013-05-04 09:52:00,56.0,33.0,-100.00,NW,323,4.0,11.0,41,-99.99,,,0.00,556.809998,,2013-05-04 16:52:00,
2013-05-04 10:02:00,56.0,33.0,-100.00,NW,323,4.0,11.0,41,-99.99,,,0.00,556.809998,,2013-05-04 17:02:00,
2013-05-04 10:12:00,56.0,33.0,-100.00,NW,323,4.0,11.0,41,-99.99,,,0.00,556.809998,,2013-05-04 17:12:00,
2013-05-04 10:42:00,59.0,34.0,-100.00,NNW,333,6.0,15.0,39,-99.99,,,0.00,734.739990,,2013-05-04 17:42:00,
2013-05-04 10:52:00,59.0,34.0,-100.00,NNW,333,6.0,15.0,39,-99.99,,,0.00,734.739990,,2013-05-04 17:52:00,
2013-05-04 11:01:00,59.0,34.0,-100.00,NNW,333,6.0,15.0,39,-99.99,,,0.00,734.739990,,2013-05-04 18:01:00,
2013-05-04 11:12:00,59.0,34.0,-100.00,NNW,333,6.0,15.0,39,-99.99,,,0.00,734.739990,,2013-05-04 18:12:00,
2013-05-04 11:42:00,60.0,34.0,-100.00,NNW,330,6.0,18.0,36,-99.99,,,0.00,871.650024,,2013-05-04 18:42:00,
2013-05-04 11:52:00,60.0,34.0,-100.00,NNW,330,6.0,18.0,36,-99.99,,,0.00,871.650024,,2013-05-04 18:52:00,
2013-05-04 12:01:00,60.0,34.0,-100.00,NNW,330,6.0,18.0,36,-99.99,,,0.00,871.650024,,2013-05-04 19:01:00,
2013-05-04 12:11:00,60.0,34.0,-100.00,NNW,330,6.0,18.0,36,-99.99,,,0.00,871.650024,,2013-05-04 19:11:00,
2013-05-04 12:42:00,62.0,29.0,-100.00,North,350,10.0,22.0,28,-99.99,,,0.00,951.840027,,2013-05-04 19:42:00,
2013-05-04 12:52:00,62.0,29.0,-100.00,North,350,10.0,22.0,28,-99.99,,,0.00,951.840027,,2013-05-04 19:52:00,
2013-05-04 13:02:00,62.0,29.0,-100.00,North,350,10.0,22.0,28,-99.99,,,0.00,951.840027,,2013-05-04 20:02:00,
2013-05-04 13:11:00,62.0,29.0,-100.00,North,350,10.0,22.0,28,-99.99,,,0.00,951.840027,,2013-05-04 20:11:00,
2013-05-04 13:42:00,63.0,31.0,-100.00,North,353,9.0,22.0,29,-99.99,,,0.00,987.869995,,2013-05-04 20:42:00,
2013-05-04 13:52:00,63.0,31.0,-100.00,North,353,9.0,22.0,29,-99.99,,,0.00,987.869995,,2013-05-04 20:52:00,
2013-05-04 14:01:00,63.0,31.0,-100.00,North,353,9.0,22.0,29,-99.99,,,0.00,987.869995,,2013-05-04 21:01:00,
2013-05-04 14:11:00,63.0,31.0,-100.00,North,353,9.0,22.0,29,-99.99,,,0.00,987.869995,,2013-05-04 21:11:00,
2013-05-04 14:43:00,65.0,32.0,-100.00,NNW,347,8.0,24.0,28,-99.99,,,0.00,890.250000,,2013-05-04 21:43:00,
2013-05-04 14:53:00,65.0,32.0,-100.00,NNW,347,8.0,24.0,28,-99.99,,,0.00,890.250000,,2013-05-04 21:53:00,
2013-05-04 15:02:00,65.0,32.0,-100.00,NNW,347,8.0,24.0,28,-99.99,,,0.00,890.250000,,2013-05-04 22:02:00,
2013-05-04 15:12:00,65.0,32.0,-100.00,NNW,347,8.0,24.0,28,-99.99,,,0.00,890.250000,,2013-05-04 22:12:00,
2013-05-04 15:42:00,65.0,31.0,-100.00,North,357,8.0,15.0,28,-99.99,,,-99.99,439.779999,,2013-05-04 22:42:00,
2013-05-04 15:52:00,65.0,31.0,-100.00,North,357,8.0,15.0,28,-99.99,,,-99.99,439.779999,,2013-05-04 22:52:00,
2013-05-04 16:02:00,65.0,31.0,-100.00,North,357,8.0,15.0,28,-99.99,,,-99.99,439.779999,,2013-05-04 23:02:00,
2013-05-04 16:11:00,65.0,31.0,-100.00,North,357,8.0,15.0,28,-99.99,,,-99.99,439.779999,,2013-05-04 23:11:00,
2013-05-04 16:42:00,66.0,31.0,-100.00,North,356,8.0,18.0,26,-99.99,,,-99.99,615.270020,,2013-05-04 23:42:00,
2013-05-04 16:52:00,66.0,31.0,-100.00,North,356,8.0,18.0,26,-99.99,,,-99.99,615.270020,,2013-05-04 23:52:00,
2013-05-04 17:01:00,66.0,31.0,-100.00,North,356,8.0,18.0,26,-99.99,,,-99.99,615.270020,,2013-05-05 00:01:00,
2013-05-04 17:11:00,66.0,31.0,-100.00,North,356,8.0,18.0,26,-99.99,,,-99.99,615.270020,,2013-05-05 00:11:00,
2013-05-04 18:42:00,65.0,29.0,-100.00,North,359,8.0,18.0,25,-99.99,,,0.00,187.699997,,2013-05-05 01:42:00,
2013-05-04 18:52:00,65.0,29.0,-100.00,North,359,8.0,18.0,25,-99.99,,,0.00,187.699997,,2013-05-05 01:52:00,
2013-05-04 19:02:00,65.0,29.0,-100.00,North,359,8.0,18.0,25,-99.99,,,0.00,187.699997,,2013-05-05 02:02:00,
2013-05-04 19:11:00,65.0,29.0,-100.00,North,359,8.0,18.0,25,-99.99,,,0.00,187.699997,,2013-05-05 02:11:00,
2013-05-04 19:42:00,63.0,28.0,-100.00,North,6,6.0,17.0,26,-99.99,,,0.00,28.709999,,2013-05-05 02:42:00,
2013-05-04 19:52:00,63.0,28.0,-100.00,North,6,6.0,17.0,26,-99.99,,,0.00,28.709999,,2013-05-05 02:52:00,
2013-05-04 20:01:00,63.0,28.0,-100.00,North,6,6.0,17.0,26,-99.99,,,0.00,28.709999,,2013-05-05 03:01:00,
2013-05-04 20:11:00,63.0,28.0,-100.00,North,6,6.0,17.0,26,-99.99,,,0.00,28.709999,,2013-05-05 03:11:00,
2013-05-04 20:42:00,61.0,28.0,-100.00,North,357,6.0,14.0,28,-99.99,,,0.00,5.460000,,2013-05-05 03:42:00,
2013-05-04 20:53:00,61.0,28.0,-100.00,North,357,6.0,14.0,28,-99.99,,,0.00,5.460000,,2013-05-05 03:53:00,
2013-05-04 21:02:00,61.0,28.0,-100.00,North,357,6.0,14.0,28,-99.99,,,0.00,5.460000,,2013-05-05 04:02:00,
2013-05-04 21:12:00,61.0,28.0,-100.00,North,357,6.0,14.0,28,-99.99,,,0.00,5.460000,,2013-05-05 04:12:00,
2013-05-04 21:43:00,59.0,29.0,-100.00,North,352,6.0,12.0,31,-99.99,,,0.00,0.120000,,2013-05-05 04:43:00,
2013-05-04 21:52:00,59.0,29.0,-100.00,North,352,6.0,12.0,31,-99.99,,,0.00,0.120000,,2013-05-05 04:52:00,
2013-05-04 22:02:00,59.0,29.0,-100.00,North,352,6.0,12.0,31,-99.99,,,0.00,0.120000,,2013-05-05 05:02:00,
2013-05-04 22:12:00,59.0,29.0,-100.00,North,352,6.0,12.0,31,-99.99,,,0.00,0.120000,,2013-05-05 05:12:00,
2013-05-04 22:42:00,55.0,29.0,-100.00,NW,314,2.0,4.0,36,-99.99,,,0.00,0.000000,,2013-05-05 05:42:00,
2013-05-04 22:52:00,55.0,29.0,-100.00,NW,314,2.0,4.0,36,-99.99,,,0.00,0.000000,,2013-05-05 05:52:00,
2013-05-04 23:01:00,55.0,29.0,-100.00,NW,314,2.0,4.0,36,-99.99,,,0.00,0.000000,,2013-05-05 06:01:00,
2013-05-04 23:11:00,55.0,29.0,-100.00,NW,314,2.0,4.0,36,-99.99,,,0.00,0.000000,,2013-05-05 06:11:00,
2013-05-04 23:42:00,52.0,30.0,-100.00,WNW,297,0.0,1.0,41,-99.99,,,0.00,0.000000,,2013-05-05 06:42:00,
2013-05-04 23:52:00,52.0,30.0,-100.00,WNW,297,0.0,1.0,41,-99.99,,,0.00,0.000000,,2013-05-05 06:52:00,